Hepburn Heights, Pennsylvania
Current Conditions -  °F | °C
As of 12:54 PM on Friday 19 Dec 2014 (Local Time) from KIPT Reporting Station
Overcast Overcast  
Wind Chill: 30°   Ceiling: 3700
Heat Index: 37°   Visibility: 10mi
Dew Point: 20°   Wind: 10mph
Humidity: 50%   Direction: 320°NW
Pressure: 30.09"   Gusts: NA
Location:  41.3181°N, 77.075°W
Report Text: KIPT 191754Z 32009KT 10SM OVC037 03/M07 A3009 RMK AO2 SLP196 T00281067 10033 20011 56010
Loading
Personal Weather Stations






























Interactive Weather Map New forecast layout! Learn more

10-Day Weather Forecast

Advertisements
Track Severe Weather on mobile